Benchley, Texas
Current Conditions -  °F | °C
As of 2:53 PM on Monday 24 Nov 2014 (Local Time) from KCLL Reporting Station
Clear Clear  
Wind Chill: 65°   Ceiling: Unl
Heat Index: 65°   Visibility: 10mi
Dew Point: 28°   Wind: 13mph
Humidity: 25%   Direction: 350°N
Pressure: 30.04"   Gusts: NA
Location:  30.6361°N, 96.3666°W
Report Text: KCLL 242053Z 35011KT 10SM CLR 18/M02 A3004 RMK AO2 SLP169 T01831022 56008
Loading
Personal Weather Stations






























Interactive Weather Map New forecast layout! Learn more

10-Day Weather Forecast

Advertisements
Track Severe Weather on mobile